createdAt,value
2022-12-11T00:03:20.714Z,76.97
2022-12-11T00:08:22.567Z,97.00
2022-12-11T00:13:24.358Z,72.75
2022-12-11T00:18:26.202Z,86.25
2022-12-11T00:23:28.153Z,82.07
2022-12-11T00:28:29.948Z,94.70
2022-12-11T00:33:31.835Z,82.97
2022-12-11T00:38:33.618Z,75.30
2022-12-11T00:43:35.630Z,82.80
2022-12-11T00:48:37.535Z,95.28
2022-12-11T00:53:39.484Z,87.65
2022-12-11T00:58:41.266Z,92.68
2022-12-11T01:03:43.092Z,85.05
2022-12-11T01:08:45.597Z,149.38
2022-12-11T01:13:47.399Z,139.75
2022-12-11T01:18:49.147Z,106.15
2022-12-11T01:23:51.491Z,108.82
2022-12-11T01:28:53.447Z,149.60
2022-12-11T01:33:55.630Z,108.03
2022-12-11T01:38:57.376Z,129.52
2022-12-11T01:44:04.627Z,157.50
2022-12-11T01:49:08.726Z,220.75
2022-12-11T01:54:12.761Z,220.13
2022-12-11T01:59:15.720Z,148.20
2022-12-11T02:04:18.660Z,132.07
2022-12-11T02:09:21.980Z,133.43
2022-12-11T02:14:26.854Z,122.78
2022-12-11T02:19:31.992Z,122.05
2022-12-11T02:24:46.116Z,135.85
2022-12-11T02:30:01.281Z,103.70
2022-12-11T02:35:15.311Z,101.15
2022-12-11T02:40:19.098Z,118.00
2022-12-11T02:45:21.979Z,118.13
2022-12-11T02:50:23.975Z,101.05
2022-12-11T02:55:26.272Z,107.75
2022-12-11T03:00:28.118Z,108.00
2022-12-11T03:05:30.469Z,96.90
2022-12-11T03:10:32.337Z,98.15
2022-12-11T03:15:38.030Z,93.53
2022-12-11T03:20:43.265Z,109.65
2022-12-11T03:25:55.737Z,93.03
2022-12-11T03:30:58.298Z,90.53
2022-12-11T03:36:03.648Z,97.30
2022-12-11T03:41:07.085Z,84.95
2022-12-11T03:46:09.612Z,89.00
2022-12-11T03:51:11.408Z,74.50
2022-12-11T03:56:14.501Z,70.07
2022-12-11T04:01:16.287Z,69.88
2022-12-11T04:06:18.415Z,76.13
2022-12-11T04:11:35.599Z,66.18
2022-12-11T04:16:37.352Z,71.83
2022-12-11T04:21:57.825Z,77.07
2022-12-11T04:27:00.084Z,64.75
2022-12-11T04:32:02.102Z,83.72
2022-12-11T04:37:03.925Z,70.07
2022-12-11T04:42:05.721Z,81.20
2022-12-11T04:47:07.868Z,69.30
2022-12-11T04:52:09.689Z,65.28
2022-12-11T04:57:11.486Z,61.80
2022-12-11T05:02:13.344Z,50.53
2022-12-11T05:07:15.112Z,59.25
2022-12-11T05:12:16.936Z,57.10
2022-12-11T05:17:19.146Z,55.35
2022-12-11T05:22:20.956Z,45.00
2022-12-11T05:27:23.148Z,46.63
2022-12-11T05:32:25.047Z,44.58
2022-12-11T05:37:26.927Z,40.35
2022-12-11T05:42:29.254Z,43.33
2022-12-11T05:47:31.666Z,41.83
2022-12-11T05:52:33.437Z,38.83
2022-12-11T05:57:35.233Z,40.20
2022-12-11T06:02:37.113Z,41.80
2022-12-11T06:07:39.034Z,38.75
2022-12-11T06:12:41.323Z,36.70
2022-12-11T06:17:43.148Z,35.17
2022-12-11T06:22:44.892Z,37.10
2022-12-11T06:27:46.633Z,38.80
2022-12-11T06:32:48.534Z,33.47
2022-12-11T06:37:50.323Z,32.45
2022-12-11T06:42:52.113Z,31.77
2022-12-11T06:47:53.948Z,36.30
2022-12-11T06:52:56.236Z,27.70
2022-12-11T06:57:57.969Z,32.30
2022-12-11T07:02:59.779Z,33.78
2022-12-11T07:08:01.742Z,35.35
2022-12-11T07:13:03.598Z,29.83
2022-12-11T07:18:05.449Z,22.40
2022-12-11T07:23:07.237Z,29.02
2022-12-11T07:28:10.134Z,24.02
2022-12-11T07:33:16.019Z,33.80
2022-12-11T07:38:17.838Z,31.33
2022-12-11T07:43:19.721Z,28.08
2022-12-11T07:48:21.662Z,28.83
2022-12-11T07:53:23.831Z,25.08
2022-12-11T07:58:25.682Z,25.42
2022-12-11T08:03:27.501Z,27.77
2022-12-11T08:08:29.296Z,27.98
2022-12-11T08:13:33.862Z,30.15
2022-12-11T08:18:36.456Z,27.08
2022-12-11T08:23:38.643Z,32.78
2022-12-11T08:28:41.113Z,28.23
2022-12-11T08:33:43.236Z,24.70
2022-12-11T08:38:44.982Z,28.40
2022-12-11T08:43:47.108Z,28.40
2022-12-11T08:48:48.989Z,29.50
2022-12-11T08:53:51.298Z,27.20
2022-12-11T08:58:53.189Z,29.42
2022-12-11T09:03:55.829Z,21.55
2022-12-11T09:08:58.969Z,22.30
2022-12-11T09:14:06.887Z,24.00
2022-12-11T09:19:13.881Z,30.58
2022-12-11T09:24:15.706Z,25.80
2022-12-11T09:29:17.561Z,24.98
2022-12-11T09:34:23.635Z,27.10
2022-12-11T09:39:29.280Z,24.67
2022-12-11T09:44:37.396Z,27.20
2022-12-11T09:49:40.761Z,26.92
2022-12-11T09:55:03.203Z,23.15
2022-12-11T10:00:28.474Z,25.02
2022-12-11T10:05:42.938Z,25.75
2022-12-11T10:11:00.740Z,28.50
2022-12-11T10:16:02.682Z,24.10
2022-12-11T10:21:04.932Z,23.48
2022-12-11T10:26:06.901Z,35.95
2022-12-11T10:31:12.524Z,25.77
2022-12-11T10:36:16.709Z,29.42
2022-12-11T10:41:21.058Z,27.52
2022-12-11T10:46:24.464Z,31.38
2022-12-11T10:51:34.057Z,37.10
2022-12-11T10:56:36.466Z,38.28
2022-12-11T11:01:38.259Z,31.85
2022-12-11T11:06:40.336Z,29.65
2022-12-11T11:11:50.105Z,28.95
2022-12-11T11:16:54.970Z,35.65
2022-12-11T11:21:59.071Z,34.05
2022-12-11T11:27:16.248Z,34.28
2022-12-11T11:32:20.988Z,33.13
2022-12-11T11:37:33.047Z,24.45
2022-12-11T11:42:41.373Z,35.80
2022-12-11T11:48:09.463Z,29.80
2022-12-11T11:53:22.255Z,30.73
2022-12-11T11:58:30.845Z,28.13
2022-12-11T12:03:32.611Z,33.60
2022-12-11T12:09:00.550Z,31.33
2022-12-11T12:14:02.323Z,29.70
2022-12-11T12:19:25.731Z,31.95
2022-12-11T12:24:30.582Z,26.80
2022-12-11T12:29:51.169Z,33.42
2022-12-11T12:35:04.387Z,32.13
2022-12-11T12:40:38.676Z,34.20
2022-12-11T12:45:45.383Z,33.40
2022-12-11T12:50:49.487Z,33.37
2022-12-11T12:55:51.945Z,32.47
2022-12-11T13:00:54.279Z,35.38
2022-12-11T13:06:03.932Z,31.85
2022-12-11T13:11:07.503Z,29.45
2022-12-11T13:16:15.323Z,25.90
2022-12-11T13:21:29.383Z,30.98
2022-12-11T13:26:32.833Z,38.75
2022-12-11T13:31:35.894Z,28.55
2022-12-11T13:36:40.053Z,30.38
2022-12-11T13:41:44.285Z,29.15
2022-12-11T13:46:46.171Z,26.73
2022-12-11T13:51:55.263Z,28.67
2022-12-11T13:56:57.208Z,26.75
2022-12-11T14:02:01.233Z,30.98
2022-12-11T14:07:06.761Z,26.67
2022-12-11T14:12:17.362Z,33.55
2022-12-11T14:17:26.938Z,28.50
2022-12-11T14:22:29.706Z,28.85
2022-12-11T14:27:31.512Z,29.10
2022-12-11T14:32:36.586Z,32.17
2022-12-11T14:37:39.126Z,32.00
2022-12-11T14:42:44.378Z,26.75
2022-12-11T14:47:46.715Z,30.95
2022-12-11T14:52:59.639Z,29.90
2022-12-11T14:58:03.237Z,35.28
2022-12-11T15:03:06.727Z,38.35
2022-12-11T15:08:11.938Z,26.38
2022-12-11T15:13:16.743Z,32.95
2022-12-11T15:18:26.478Z,26.60
2022-12-11T15:23:28.727Z,24.25
2022-12-11T15:28:33.323Z,28.00
2022-12-11T15:33:45.246Z,30.38
2022-12-11T15:38:47.433Z,25.88
2022-12-11T15:43:52.770Z,30.48
2022-12-11T15:48:57.700Z,27.65
2022-12-11T15:53:59.488Z,25.48
2022-12-11T15:59:04.517Z,32.78
2022-12-11T16:04:06.343Z,27.10
2022-12-11T16:09:08.218Z,33.90
2022-12-11T16:14:10.058Z,27.05
2022-12-11T16:19:11.914Z,32.25
2022-12-11T16:24:13.861Z,30.10
2022-12-11T16:29:15.758Z,25.17
2022-12-11T16:34:17.585Z,24.60
2022-12-11T16:39:19.359Z,32.30
2022-12-11T16:44:22.262Z,29.15
2022-12-11T16:49:24.461Z,31.92
2022-12-11T16:54:26.287Z,29.65
2022-12-11T16:59:31.099Z,25.30
2022-12-11T17:04:35.495Z,21.90
2022-12-11T17:09:38.404Z,28.75
2022-12-11T17:14:40.266Z,31.25
2022-12-11T17:19:42.060Z,28.55
2022-12-11T17:24:43.916Z,24.45
2022-12-11T17:29:47.341Z,24.40
2022-12-11T17:34:50.533Z,23.77
2022-12-11T17:39:52.351Z,21.08
2022-12-11T17:44:54.320Z,24.95
2022-12-11T17:49:56.151Z,21.98
2022-12-11T17:54:57.944Z,24.10
2022-12-11T18:00:00.077Z,24.35
2022-12-11T18:05:01.880Z,23.80
2022-12-11T18:10:04.014Z,25.75
2022-12-11T18:15:06.066Z,23.60
2022-12-11T18:20:08.171Z,27.05
2022-12-11T18:25:11.826Z,24.02
2022-12-11T18:30:14.470Z,22.60
2022-12-11T18:35:16.825Z,21.23
2022-12-11T18:40:18.734Z,25.45
2022-12-11T18:45:20.514Z,21.73
2022-12-11T18:50:22.299Z,23.90
2022-12-11T18:55:24.136Z,27.83
2022-12-11T19:00:26.677Z,24.17
2022-12-11T19:05:28.889Z,21.55
2022-12-11T19:10:30.686Z,25.38
2022-12-11T19:15:32.605Z,23.17
2022-12-11T19:20:48.936Z,22.67
2022-12-11T19:25:52.840Z,22.85
2022-12-11T19:30:54.621Z,25.25
2022-12-11T19:36:03.197Z,24.08
2022-12-11T19:41:06.841Z,22.38
2022-12-11T19:46:09.987Z,21.75
2022-12-11T19:51:16.604Z,24.75
2022-12-11T19:56:19.583Z,23.80
2022-12-11T20:01:28.536Z,26.38
2022-12-11T20:06:34.957Z,28.23
2022-12-11T20:11:37.899Z,26.05
2022-12-11T20:17:09.241Z,26.58
2022-12-11T20:22:02.224Z,28.05
2022-12-11T20:27:04.302Z,25.80
2022-12-11T20:32:07.465Z,29.83
2022-12-11T20:37:09.554Z,29.63
2022-12-11T20:42:11.842Z,24.52
2022-12-11T20:47:13.785Z,26.52
2022-12-11T20:52:15.741Z,29.02
2022-12-11T20:57:18.414Z,31.70
2022-12-11T21:02:20.476Z,29.60
2022-12-11T21:07:22.316Z,27.52
2022-12-11T21:12:29.778Z,32.97
2022-12-11T21:17:34.709Z,36.75
2022-12-11T21:22:36.463Z,32.42
2022-12-11T21:27:38.257Z,28.67
2022-12-11T21:32:40.126Z,31.70
2022-12-11T21:37:41.949Z,33.45
2022-12-11T21:42:43.711Z,28.45
2022-12-11T21:47:45.466Z,36.63
2022-12-11T21:52:47.238Z,29.98
2022-12-11T21:57:49.057Z,33.33
2022-12-11T22:02:51.092Z,36.10
2022-12-11T22:07:53.015Z,32.90
2022-12-11T22:12:55.425Z,32.75
2022-12-11T22:17:57.238Z,28.60
2022-12-11T22:22:59.005Z,37.97
2022-12-11T22:28:00.962Z,32.65
2022-12-11T22:33:03.013Z,36.28
2022-12-11T22:38:04.910Z,34.30
2022-12-11T22:43:07.099Z,39.60
2022-12-11T22:48:09.198Z,35.13
2022-12-11T22:53:10.974Z,31.45
2022-12-11T22:58:16.124Z,31.42
2022-12-11T23:03:22.104Z,30.42
2022-12-11T23:08:23.964Z,30.00
2022-12-11T23:13:25.769Z,29.73
2022-12-11T23:18:27.570Z,32.85
2022-12-11T23:23:29.494Z,38.22
2022-12-11T23:28:31.269Z,32.13
2022-12-11T23:33:33.089Z,30.63
2022-12-11T23:38:35.036Z,31.40
2022-12-11T23:43:37.249Z,32.92
2022-12-11T23:48:39.107Z,29.92
2022-12-11T23:53:41.389Z,31.92
2022-12-11T23:58:43.388Z,27.83
